Impacts TAF Board INFO
IDs:

KBOS - Boston/Logan Intl, MA, US

Issued at 0542 UTC 03 Dec 2016
Updated at 0648 UTC 03 Dec 2016
Potential Impact None Slight Moderate High
Time0554Z 03/07Z 03/08Z 03/09Z 03/10Z 03/11Z 03/12Z 03/13Z 03/14Z 03/15Z 03/16Z 03/17Z 03/18Z 03/19Z
Type OBS PRVL PRVL PRVL PRVL PRVL PRVL PRVL PRVL PRVL PRVL PRVL PRVL PRVL
VIS 10 >6 >6 >6 >6 >6 >6 >6 >6 >6 >6 >6 >6 >6
CIG 110 60 60 60 60 60 -- -- -- -- -- -- -- --
Cover BKN BKN BKN BKN BKN BKN SCT SCT SCT SCT SCT SCT SCT SCT
FltCat VFR VFR VFR VFR VFR VFR VFR VFR VFR VFR VFR VFR VFR VFR
WX -- -- -- -- -- -- -- -- -- -- -- -- -- --
WDir 280 260 260 260 260 260 290 290 290 290 290 290 310 310
WSpd 10 14 14 14 14 14 13 13 13 13 13 13 15 15
WGst -- -- -- -- -- -- 30 30 30 30 30 30 25 25

Raw TAF
KBOS 030542Z 0306/0412 26014KT P6SM BKN060
  FM031200 29013G30KT P6SM SCT250
  FM031800 31015G25KT P6SM SCT045
  FM032000 31014G25KT P6SM BKN080
  FM040000 31012G28KT P6SM SCT080


Raw METAR
KBOS 030554Z 28010KT 10SM BKN110 06/M01 A2975 RMK AO2 SLP072 T00561011 10072 20056 53004
KBOS 030454Z 26014KT 10SM OVC110 06/M01 A2973 RMK AO2 SLP067 T00561011 401060033
KBOS 030354Z 27012G19KT 10SM BKN120 06/M01 A2973 RMK AO2 SLP066 T00611011

METAR Board
Radar Display
Forecast Discussion